sensor_id;sensor_type;location;lat;lon;timestamp;P1;durP1;ratioP1;P2;durP2;ratioP2
77880;SDS011;67077;50.298;18.996;2023-06-14T00:01:13;19.20;;;11.90;;
77880;SDS011;67077;50.298;18.996;2023-06-14T00:06:11;22.30;;;12.40;;
77880;SDS011;67077;50.298;18.996;2023-06-14T00:08:37;25.10;;;13.50;;
77880;SDS011;67077;50.298;18.996;2023-06-14T00:11:04;24.00;;;12.70;;
77880;SDS011;67077;50.298;18.996;2023-06-14T00:13:31;25.60;;;14.10;;
77880;SDS011;67077;50.298;18.996;2023-06-14T00:15:57;25.30;;;13.70;;
77880;SDS011;67077;50.298;18.996;2023-06-14T00:18:24;24.90;;;13.10;;
77880;SDS011;67077;50.298;18.996;2023-06-14T00:20:55;22.00;;;12.20;;
77880;SDS011;67077;50.298;18.996;2023-06-14T00:23:22;23.10;;;12.30;;
77880;SDS011;67077;50.298;18.996;2023-06-14T00:25:49;19.70;;;12.20;;
77880;SDS011;67077;50.298;18.996;2023-06-14T00:28:15;20.40;;;11.90;;
77880;SDS011;67077;50.298;18.996;2023-06-14T00:30:42;21.70;;;12.80;;
77880;SDS011;67077;50.298;18.996;2023-06-14T00:33:10;21.00;;;11.60;;
77880;SDS011;67077;50.298;18.996;2023-06-14T00:35:37;19.60;;;11.10;;
77880;SDS011;67077;50.298;18.996;2023-06-14T00:38:04;21.90;;;12.20;;
77880;SDS011;67077;50.298;18.996;2023-06-14T00:40:31;19.90;;;11.90;;
77880;SDS011;67077;50.298;18.996;2023-06-14T00:42:58;21.90;;;13.50;;
77880;SDS011;67077;50.298;18.996;2023-06-14T00:45:25;25.30;;;15.30;;
77880;SDS011;67077;50.298;18.996;2023-06-14T00:47:51;20.40;;;12.40;;
77880;SDS011;67077;50.298;18.996;2023-06-14T00:50:21;19.60;;;11.10;;
77880;SDS011;67077;50.298;18.996;2023-06-14T00:52:49;20.60;;;11.80;;
77880;SDS011;67077;50.298;18.996;2023-06-14T00:55:17;19.90;;;11.30;;
77880;SDS011;67077;50.298;18.996;2023-06-14T00:57:44;20.20;;;12.10;;
77880;SDS011;67077;50.298;18.996;2023-06-14T01:00:12;21.50;;;12.40;;
77880;SDS011;67077;50.298;18.996;2023-06-14T01:02:39;24.30;;;13.30;;
77880;SDS011;67077;50.298;18.996;2023-06-14T01:05:06;23.90;;;12.30;;
77880;SDS011;67077;50.298;18.996;2023-06-14T01:07:45;21.10;;;12.40;;
77880;SDS011;67077;50.298;18.996;2023-06-14T01:10:47;24.80;;;13.30;;
77880;SDS011;67077;50.298;18.996;2023-06-14T01:13:42;24.70;;;13.10;;
77880;SDS011;67077;50.298;18.996;2023-06-14T01:16:09;26.20;;;14.80;;
77880;SDS011;67077;50.298;18.996;2023-06-14T01:18:37;26.80;;;14.30;;
77880;SDS011;67077;50.298;18.996;2023-06-14T01:21:04;25.50;;;13.30;;
77880;SDS011;67077;50.298;18.996;2023-06-14T01:23:32;24.50;;;13.10;;
77880;SDS011;67077;50.298;18.996;2023-06-14T01:26:00;19.20;;;11.90;;
77880;SDS011;67077;50.298;18.996;2023-06-14T01:28:29;22.40;;;11.80;;
77880;SDS011;67077;50.298;18.996;2023-06-14T01:30:59;23.20;;;12.90;;
77880;SDS011;67077;50.298;18.996;2023-06-14T01:33:31;20.40;;;12.10;;
77880;SDS011;67077;50.298;18.996;2023-06-14T01:35:59;21.30;;;11.90;;
77880;SDS011;67077;50.298;18.996;2023-06-14T01:38:28;21.20;;;10.90;;
77880;SDS011;67077;50.298;18.996;2023-06-14T01:40:56;19.90;;;11.00;;
77880;SDS011;67077;50.298;18.996;2023-06-14T01:43:26;20.50;;;11.20;;
77880;SDS011;67077;50.298;18.996;2023-06-14T01:45:56;22.20;;;12.10;;
77880;SDS011;67077;50.298;18.996;2023-06-14T01:48:23;21.70;;;11.40;;
77880;SDS011;67077;50.298;18.996;2023-06-14T01:50:50;21.10;;;12.00;;
77880;SDS011;67077;50.298;18.996;2023-06-14T01:53:19;19.10;;;11.10;;
77880;SDS011;67077;50.298;18.996;2023-06-14T01:55:47;18.60;;;9.90;;
77880;SDS011;67077;50.298;18.996;2023-06-14T01:58:15;17.90;;;10.70;;
77880;SDS011;67077;50.298;18.996;2023-06-14T02:00:44;18.50;;;10.60;;
77880;SDS011;67077;50.298;18.996;2023-06-14T02:03:11;17.60;;;10.70;;
77880;SDS011;67077;50.298;18.996;2023-06-14T02:05:39;18.40;;;10.70;;
77880;SDS011;67077;50.298;18.996;2023-06-14T02:08:06;18.60;;;10.80;;
77880;SDS011;67077;50.298;18.996;2023-06-14T02:10:33;16.20;;;10.10;;
77880;SDS011;67077;50.298;18.996;2023-06-14T02:13:00;17.30;;;10.20;;
77880;SDS011;67077;50.298;18.996;2023-06-14T02:15:27;18.20;;;10.40;;
77880;SDS011;67077;50.298;18.996;2023-06-14T02:18:00;19.10;;;11.00;;
77880;SDS011;67077;50.298;18.996;2023-06-14T02:20:30;18.70;;;11.90;;
77880;SDS011;67077;50.298;18.996;2023-06-14T02:22:57;22.20;;;12.90;;
77880;SDS011;67077;50.298;18.996;2023-06-14T02:25:24;20.60;;;12.00;;
77880;SDS011;67077;50.298;18.996;2023-06-14T02:27:51;21.00;;;13.40;;
77880;SDS011;67077;50.298;18.996;2023-06-14T02:30:17;21.30;;;12.80;;
77880;SDS011;67077;50.298;18.996;2023-06-14T02:32:44;20.40;;;11.80;;
77880;SDS011;67077;50.298;18.996;2023-06-14T02:35:11;20.20;;;11.70;;
77880;SDS011;67077;50.298;18.996;2023-06-14T02:37:38;18.50;;;9.90;;
77880;SDS011;67077;50.298;18.996;2023-06-14T02:40:05;17.50;;;10.80;;
77880;SDS011;67077;50.298;18.996;2023-06-14T02:42:35;16.00;;;9.30;;
77880;SDS011;67077;50.298;18.996;2023-06-14T02:45:01;14.90;;;9.10;;
77880;SDS011;67077;50.298;18.996;2023-06-14T02:47:30;15.40;;;9.30;;
77880;SDS011;67077;50.298;18.996;2023-06-14T02:49:56;15.20;;;9.50;;
77880;SDS011;67077;50.298;18.996;2023-06-14T02:52:23;15.10;;;9.30;;
77880;SDS011;67077;50.298;18.996;2023-06-14T02:54:51;15.00;;;9.60;;
77880;SDS011;67077;50.298;18.996;2023-06-14T02:57:18;15.80;;;9.80;;
77880;SDS011;67077;50.298;18.996;2023-06-14T02:59:45;16.70;;;9.60;;
77880;SDS011;67077;50.298;18.996;2023-06-14T03:02:11;15.10;;;9.10;;
77880;SDS011;67077;50.298;18.996;2023-06-14T03:04:38;16.20;;;10.10;;
77880;SDS011;67077;50.298;18.996;2023-06-14T03:07:05;16.80;;;10.40;;
77880;SDS011;67077;50.298;18.996;2023-06-14T03:09:35;16.40;;;9.70;;
77880;SDS011;67077;50.298;18.996;2023-06-14T03:12:06;17.40;;;10.30;;
77880;SDS011;67077;50.298;18.996;2023-06-14T03:14:36;16.30;;;10.10;;
77880;SDS011;67077;50.298;18.996;2023-06-14T03:17:02;16.10;;;10.10;;
77880;SDS011;67077;50.298;18.996;2023-06-14T03:19:31;17.50;;;10.40;;
77880;SDS011;67077;50.298;18.996;2023-06-14T03:21:58;17.70;;;11.40;;
77880;SDS011;67077;50.298;18.996;2023-06-14T03:24:25;17.90;;;10.70;;
77880;SDS011;67077;50.298;18.996;2023-06-14T03:26:55;21.10;;;11.80;;
77880;SDS011;67077;50.298;18.996;2023-06-14T03:29:22;19.20;;;11.00;;
77880;SDS011;67077;50.298;18.996;2023-06-14T03:32:00;17.50;;;10.10;;
77880;SDS011;67077;50.298;18.996;2023-06-14T03:34:28;15.90;;;9.60;;
77880;SDS011;67077;50.298;18.996;2023-06-14T03:36:55;17.60;;;10.20;;
77880;SDS011;67077;50.298;18.996;2023-06-14T03:39:22;20.30;;;11.10;;
77880;SDS011;67077;50.298;18.996;2023-06-14T03:41:49;22.30;;;12.50;;
77880;SDS011;67077;50.298;18.996;2023-06-14T03:44:16;18.80;;;10.50;;
77880;SDS011;67077;50.298;18.996;2023-06-14T03:46:45;22.30;;;11.20;;
77880;SDS011;67077;50.298;18.996;2023-06-14T03:49:12;20.70;;;10.80;;
77880;SDS011;67077;50.298;18.996;2023-06-14T03:51:39;17.60;;;11.10;;
77880;SDS011;67077;50.298;18.996;2023-06-14T03:54:06;18.70;;;11.80;;
77880;SDS011;67077;50.298;18.996;2023-06-14T03:56:33;20.40;;;12.40;;
77880;SDS011;67077;50.298;18.996;2023-06-14T03:59:01;23.30;;;13.20;;
77880;SDS011;67077;50.298;18.996;2023-06-14T04:01:28;21.00;;;12.10;;
77880;SDS011;67077;50.298;18.996;2023-06-14T04:03:56;20.50;;;11.10;;
77880;SDS011;67077;50.298;18.996;2023-06-14T04:06:24;17.50;;;10.10;;
77880;SDS011;67077;50.298;18.996;2023-06-14T04:08:59;20.30;;;11.50;;
77880;SDS011;67077;50.298;18.996;2023-06-14T04:11:30;18.40;;;11.60;;
77880;SDS011;67077;50.298;18.996;2023-06-14T04:13:59;20.00;;;11.70;;
77880;SDS011;67077;50.298;18.996;2023-06-14T04:16:28;19.00;;;11.60;;
77880;SDS011;67077;50.298;18.996;2023-06-14T04:18:55;24.00;;;12.80;;
77880;SDS011;67077;50.298;18.996;2023-06-14T04:21:24;24.60;;;13.00;;
77880;SDS011;67077;50.298;18.996;2023-06-14T04:23:52;26.50;;;13.10;;
77880;SDS011;67077;50.298;18.996;2023-06-14T04:26:19;25.90;;;13.10;;
77880;SDS011;67077;50.298;18.996;2023-06-14T04:28:47;26.20;;;12.60;;
77880;SDS011;67077;50.298;18.996;2023-06-14T04:31:14;27.40;;;13.30;;
77880;SDS011;67077;50.298;18.996;2023-06-14T04:33:42;22.80;;;13.20;;
77880;SDS011;67077;50.298;18.996;2023-06-14T04:36:10;23.80;;;12.80;;
77880;SDS011;67077;50.298;18.996;2023-06-14T04:38:44;26.70;;;13.90;;
77880;SDS011;67077;50.298;18.996;2023-06-14T04:41:12;23.90;;;13.00;;
77880;SDS011;67077;50.298;18.996;2023-06-14T04:43:39;23.30;;;12.70;;
77880;SDS011;67077;50.298;18.996;2023-06-14T04:46:06;22.30;;;13.00;;
77880;SDS011;67077;50.298;18.996;2023-06-14T04:48:40;24.60;;;13.20;;
77880;SDS011;67077;50.298;18.996;2023-06-14T04:51:09;21.60;;;12.50;;
77880;SDS011;67077;50.298;18.996;2023-06-14T04:53:36;21.70;;;13.20;;
77880;SDS011;67077;50.298;18.996;2023-06-14T04:56:03;22.70;;;13.20;;
77880;SDS011;67077;50.298;18.996;2023-06-14T04:58:30;22.70;;;12.70;;
77880;SDS011;67077;50.298;18.996;2023-06-14T05:00:58;24.40;;;14.30;;
77880;SDS011;67077;50.298;18.996;2023-06-14T05:03:25;26.20;;;13.70;;
77880;SDS011;67077;50.298;18.996;2023-06-14T05:05:53;22.80;;;12.00;;
77880;SDS011;67077;50.298;18.996;2023-06-14T05:08:21;24.60;;;14.30;;
77880;SDS011;67077;50.298;18.996;2023-06-14T05:10:50;28.40;;;15.60;;
77880;SDS011;67077;50.298;18.996;2023-06-14T05:13:17;26.90;;;14.90;;
77880;SDS011;67077;50.298;18.996;2023-06-14T05:15:44;29.50;;;14.20;;
77880;SDS011;67077;50.298;18.996;2023-06-14T05:18:11;29.90;;;14.50;;
77880;SDS011;67077;50.298;18.996;2023-06-14T05:20:39;25.00;;;13.20;;
77880;SDS011;67077;50.298;18.996;2023-06-14T05:23:08;25.90;;;14.40;;
77880;SDS011;67077;50.298;18.996;2023-06-14T05:25:44;26.50;;;13.80;;
77880;SDS011;67077;50.298;18.996;2023-06-14T05:28:11;27.60;;;13.80;;
77880;SDS011;67077;50.298;18.996;2023-06-14T05:30:38;25.80;;;13.40;;
77880;SDS011;67077;50.298;18.996;2023-06-14T05:33:06;20.50;;;12.50;;
77880;SDS011;67077;50.298;18.996;2023-06-14T05:35:33;20.80;;;13.30;;
77880;SDS011;67077;50.298;18.996;2023-06-14T05:38:00;21.10;;;13.90;;
77880;SDS011;67077;50.298;18.996;2023-06-14T05:40:26;20.60;;;11.60;;
77880;SDS011;67077;50.298;18.996;2023-06-14T05:42:53;17.60;;;11.70;;
77880;SDS011;67077;50.298;18.996;2023-06-14T05:45:20;17.20;;;11.30;;
77880;SDS011;67077;50.298;18.996;2023-06-14T05:47:46;16.20;;;10.90;;
77880;SDS011;67077;50.298;18.996;2023-06-14T05:50:13;16.40;;;10.70;;
77880;SDS011;67077;50.298;18.996;2023-06-14T05:52:40;17.80;;;11.00;;
77880;SDS011;67077;50.298;18.996;2023-06-14T05:55:07;17.60;;;11.40;;
77880;SDS011;67077;50.298;18.996;2023-06-14T05:57:34;17.20;;;10.70;;
77880;SDS011;67077;50.298;18.996;2023-06-14T06:00:02;17.20;;;11.10;;
77880;SDS011;67077;50.298;18.996;2023-06-14T06:02:37;18.80;;;11.60;;
77880;SDS011;67077;50.298;18.996;2023-06-14T06:05:04;15.80;;;10.90;;
77880;SDS011;67077;50.298;18.996;2023-06-14T06:07:32;18.00;;;11.80;;
77880;SDS011;67077;50.298;18.996;2023-06-14T06:09:59;17.40;;;10.60;;
77880;SDS011;67077;50.298;18.996;2023-06-14T06:12:26;16.60;;;10.70;;
77880;SDS011;67077;50.298;18.996;2023-06-14T06:14:52;18.00;;;11.50;;
77880;SDS011;67077;50.298;18.996;2023-06-14T06:17:19;20.50;;;11.50;;
77880;SDS011;67077;50.298;18.996;2023-06-14T06:19:46;19.50;;;11.90;;
77880;SDS011;67077;50.298;18.996;2023-06-14T06:22:12;15.70;;;10.70;;
77880;SDS011;67077;50.298;18.996;2023-06-14T06:24:39;22.70;;;13.50;;
77880;SDS011;67077;50.298;18.996;2023-06-14T06:27:06;21.50;;;13.20;;
77880;SDS011;67077;50.298;18.996;2023-06-14T06:29:34;20.30;;;12.60;;
77880;SDS011;67077;50.298;18.996;2023-06-14T06:32:01;17.00;;;11.80;;
77880;SDS011;67077;50.298;18.996;2023-06-14T06:34:28;17.20;;;11.30;;
77880;SDS011;67077;50.298;18.996;2023-06-14T06:36:55;18.20;;;12.30;;
77880;SDS011;67077;50.298;18.996;2023-06-14T06:39:22;21.00;;;13.20;;
77880;SDS011;67077;50.298;18.996;2023-06-14T06:41:48;19.10;;;12.60;;
77880;SDS011;67077;50.298;18.996;2023-06-14T06:44:15;17.80;;;11.70;;
77880;SDS011;67077;50.298;18.996;2023-06-14T06:46:43;18.30;;;12.40;;
77880;SDS011;67077;50.298;18.996;2023-06-14T06:49:10;20.70;;;13.40;;
77880;SDS011;67077;50.298;18.996;2023-06-14T06:51:40;19.40;;;12.90;;
77880;SDS011;67077;50.298;18.996;2023-06-14T06:54:10;21.30;;;13.00;;
77880;SDS011;67077;50.298;18.996;2023-06-14T06:56:37;21.70;;;11.40;;
77880;SDS011;67077;50.298;18.996;2023-06-14T06:59:04;15.20;;;10.30;;
77880;SDS011;67077;50.298;18.996;2023-06-14T07:01:31;13.00;;;9.00;;
77880;SDS011;67077;50.298;18.996;2023-06-14T07:04:00;12.10;;;8.50;;
77880;SDS011;67077;50.298;18.996;2023-06-14T07:06:27;10.90;;;7.20;;
77880;SDS011;67077;50.298;18.996;2023-06-14T07:08:54;6.70;;;5.10;;
77880;SDS011;67077;50.298;18.996;2023-06-14T07:11:21;7.80;;;4.40;;
77880;SDS011;67077;50.298;18.996;2023-06-14T07:13:48;8.00;;;4.60;;
77880;SDS011;67077;50.298;18.996;2023-06-14T07:16:16;8.00;;;5.40;;
77880;SDS011;67077;50.298;18.996;2023-06-14T07:18:46;8.90;;;5.80;;
77880;SDS011;67077;50.298;18.996;2023-06-14T07:21:15;7.80;;;5.70;;
77880;SDS011;67077;50.298;18.996;2023-06-14T07:23:42;8.90;;;5.10;;
77880;SDS011;67077;50.298;18.996;2023-06-14T07:26:09;5.80;;;5.00;;
77880;SDS011;67077;50.298;18.996;2023-06-14T07:28:37;7.10;;;5.70;;
77880;SDS011;67077;50.298;18.996;2023-06-14T07:31:04;8.20;;;6.10;;
77880;SDS011;67077;50.298;18.996;2023-06-14T07:33:39;10.40;;;5.90;;
77880;SDS011;67077;50.298;18.996;2023-06-14T07:36:07;8.60;;;5.60;;
77880;SDS011;67077;50.298;18.996;2023-06-14T07:38:35;6.70;;;5.20;;
77880;SDS011;67077;50.298;18.996;2023-06-14T07:41:03;7.10;;;5.00;;
77880;SDS011;67077;50.298;18.996;2023-06-14T07:43:30;7.90;;;5.00;;
77880;SDS011;67077;50.298;18.996;2023-06-14T07:45:57;7.40;;;4.10;;
77880;SDS011;67077;50.298;18.996;2023-06-14T07:48:24;5.20;;;3.90;;
77880;SDS011;67077;50.298;18.996;2023-06-14T07:50:51;5.90;;;3.80;;
77880;SDS011;67077;50.298;18.996;2023-06-14T07:53:18;4.60;;;3.60;;
77880;SDS011;67077;50.298;18.996;2023-06-14T07:55:46;5.50;;;3.50;;
77880;SDS011;67077;50.298;18.996;2023-06-14T07:58:14;4.80;;;3.50;;
77880;SDS011;67077;50.298;18.996;2023-06-14T08:00:41;5.80;;;3.50;;
77880;SDS011;67077;50.298;18.996;2023-06-14T08:03:08;4.90;;;3.30;;
77880;SDS011;67077;50.298;18.996;2023-06-14T08:05:36;3.70;;;3.20;;
77880;SDS011;67077;50.298;18.996;2023-06-14T08:08:03;5.00;;;3.30;;
77880;SDS011;67077;50.298;18.996;2023-06-14T08:10:30;4.70;;;3.10;;
77880;SDS011;67077;50.298;18.996;2023-06-14T08:12:57;4.50;;;3.40;;
77880;SDS011;67077;50.298;18.996;2023-06-14T08:15:23;3.90;;;3.20;;
77880;SDS011;67077;50.298;18.996;2023-06-14T08:17:51;6.70;;;4.00;;
77880;SDS011;67077;50.298;18.996;2023-06-14T08:20:18;6.80;;;4.10;;
77880;SDS011;67077;50.298;18.996;2023-06-14T08:22:44;6.30;;;4.70;;
77880;SDS011;67077;50.298;18.996;2023-06-14T08:25:13;7.10;;;4.70;;
77880;SDS011;67077;50.298;18.996;2023-06-14T08:27:39;7.10;;;4.30;;
77880;SDS011;67077;50.298;18.996;2023-06-14T08:30:07;5.80;;;4.30;;
77880;SDS011;67077;50.298;18.996;2023-06-14T08:32:34;7.20;;;4.60;;
77880;SDS011;67077;50.298;18.996;2023-06-14T08:35:01;7.70;;;5.10;;
77880;SDS011;67077;50.298;18.996;2023-06-14T08:37:28;11.50;;;4.50;;
77880;SDS011;67077;50.298;18.996;2023-06-14T08:40:00;6.60;;;4.40;;
77880;SDS011;67077;50.298;18.996;2023-06-14T08:42:29;6.60;;;4.80;;
77880;SDS011;67077;50.298;18.996;2023-06-14T08:45:00;6.90;;;4.90;;
77880;SDS011;67077;50.298;18.996;2023-06-14T08:47:39;7.60;;;4.90;;
77880;SDS011;67077;50.298;18.996;2023-06-14T08:50:08;6.10;;;4.60;;
77880;SDS011;67077;50.298;18.996;2023-06-14T08:52:37;5.20;;;4.10;;
77880;SDS011;67077;50.298;18.996;2023-06-14T08:55:12;6.50;;;4.60;;
77880;SDS011;67077;50.298;18.996;2023-06-14T08:58:09;6.00;;;4.50;;
77880;SDS011;67077;50.298;18.996;2023-06-14T09:00:46;8.30;;;5.10;;
77880;SDS011;67077;50.298;18.996;2023-06-14T09:11:59;7.30;;;5.00;;
77880;SDS011;67077;50.298;18.996;2023-06-14T09:15:01;7.80;;;5.40;;
77880;SDS011;67077;50.298;18.996;2023-06-14T09:24:00;5.90;;;4.80;;
77880;SDS011;67077;50.298;18.996;2023-06-14T09:27:14;7.40;;;5.90;;
77880;SDS011;67077;50.298;18.996;2023-06-14T09:32:50;8.00;;;6.50;;
77880;SDS011;67077;50.298;18.996;2023-06-14T09:35:37;10.60;;;6.70;;
77880;SDS011;67077;50.298;18.996;2023-06-14T09:38:23;9.30;;;6.80;;
77880;SDS011;67077;50.298;18.996;2023-06-14T09:41:08;9.60;;;5.70;;
77880;SDS011;67077;50.298;18.996;2023-06-14T09:46:22;10.80;;;6.10;;
77880;SDS011;67077;50.298;18.996;2023-06-14T09:51:23;9.20;;;6.40;;
77880;SDS011;67077;50.298;18.996;2023-06-14T09:53:52;10.10;;;6.40;;
77880;SDS011;67077;50.298;18.996;2023-06-14T09:56:26;10.50;;;6.00;;
77880;SDS011;67077;50.298;18.996;2023-06-14T10:01:43;10.00;;;6.40;;
77880;SDS011;67077;50.298;18.996;2023-06-14T10:04:32;9.60;;;6.80;;
77880;SDS011;67077;50.298;18.996;2023-06-14T10:07:01;11.90;;;7.00;;
77880;SDS011;67077;50.298;18.996;2023-06-14T10:09:30;10.40;;;7.00;;
77880;SDS011;67077;50.298;18.996;2023-06-14T10:11:58;11.50;;;6.90;;
77880;SDS011;67077;50.298;18.996;2023-06-14T10:14:27;9.90;;;6.80;;
77880;SDS011;67077;50.298;18.996;2023-06-14T10:19:48;10.40;;;7.00;;
77880;SDS011;67077;50.298;18.996;2023-06-14T10:25:30;10.10;;;6.80;;
77880;SDS011;67077;50.298;18.996;2023-06-14T10:28:02;10.40;;;6.70;;
77880;SDS011;67077;50.298;18.996;2023-06-14T10:31:01;10.00;;;6.40;;
77880;SDS011;67077;50.298;18.996;2023-06-14T10:33:52;10.00;;;6.20;;
77880;SDS011;67077;50.298;18.996;2023-06-14T10:36:24;10.60;;;7.00;;
77880;SDS011;67077;50.298;18.996;2023-06-14T10:39:06;10.10;;;6.90;;
77880;SDS011;67077;50.298;18.996;2023-06-14T10:41:54;10.30;;;7.00;;
77880;SDS011;67077;50.298;18.996;2023-06-14T10:46:52;9.60;;;6.50;;
77880;SDS011;67077;50.298;18.996;2023-06-14T10:49:38;7.80;;;6.20;;
77880;SDS011;67077;50.298;18.996;2023-06-14T10:52:13;9.40;;;6.20;;
77880;SDS011;67077;50.298;18.996;2023-06-14T10:54:55;9.30;;;6.40;;
77880;SDS011;67077;50.298;18.996;2023-06-14T10:57:43;9.90;;;6.40;;
77880;SDS011;67077;50.298;18.996;2023-06-14T11:00:13;10.40;;;6.70;;
77880;SDS011;67077;50.298;18.996;2023-06-14T11:10:51;9.20;;;6.50;;
77880;SDS011;67077;50.298;18.996;2023-06-14T11:13:22;8.90;;;5.80;;
77880;SDS011;67077;50.298;18.996;2023-06-14T11:15:53;12.00;;;6.60;;
77880;SDS011;67077;50.298;18.996;2023-06-14T11:18:22;7.90;;;5.60;;
77880;SDS011;67077;50.298;18.996;2023-06-14T11:23:21;8.40;;;4.90;;
77880;SDS011;67077;50.298;18.996;2023-06-14T11:25:49;10.20;;;5.50;;
77880;SDS011;67077;50.298;18.996;2023-06-14T11:28:17;9.10;;;5.30;;
77880;SDS011;67077;50.298;18.996;2023-06-14T11:30:47;11.20;;;5.80;;
77880;SDS011;67077;50.298;18.996;2023-06-14T11:33:17;9.70;;;5.50;;
77880;SDS011;67077;50.298;18.996;2023-06-14T11:35:47;9.30;;;4.80;;
77880;SDS011;67077;50.298;18.996;2023-06-14T11:38:13;6.30;;;4.00;;
77880;SDS011;67077;50.298;18.996;2023-06-14T11:40:41;7.70;;;4.60;;
77880;SDS011;67077;50.298;18.996;2023-06-14T11:45:40;8.60;;;5.00;;
77880;SDS011;67077;50.298;18.996;2023-06-14T11:48:07;7.50;;;5.10;;
77880;SDS011;67077;50.298;18.996;2023-06-14T11:50:33;7.00;;;4.80;;
77880;SDS011;67077;50.298;18.996;2023-06-14T11:53:06;8.20;;;5.70;;
77880;SDS011;67077;50.298;18.996;2023-06-14T11:55:40;11.50;;;6.20;;
77880;SDS011;67077;50.298;18.996;2023-06-14T11:58:07;10.30;;;6.10;;
77880;SDS011;67077;50.298;18.996;2023-06-14T12:00:35;10.60;;;5.40;;
77880;SDS011;67077;50.298;18.996;2023-06-14T12:03:02;6.00;;;4.30;;
77880;SDS011;67077;50.298;18.996;2023-06-14T12:05:30;8.10;;;5.20;;
77880;SDS011;67077;50.298;18.996;2023-06-14T12:08:00;8.40;;;5.10;;
77880;SDS011;67077;50.298;18.996;2023-06-14T12:10:30;9.40;;;5.20;;
77880;SDS011;67077;50.298;18.996;2023-06-14T12:13:07;9.60;;;5.70;;
77880;SDS011;67077;50.298;18.996;2023-06-14T12:15:34;7.70;;;4.60;;
77880;SDS011;67077;50.298;18.996;2023-06-14T12:18:04;5.80;;;3.70;;
77880;SDS011;67077;50.298;18.996;2023-06-14T12:20:33;8.50;;;4.60;;
77880;SDS011;67077;50.298;18.996;2023-06-14T12:23:02;7.70;;;4.70;;
77880;SDS011;67077;50.298;18.996;2023-06-14T12:25:31;8.50;;;5.20;;
77880;SDS011;67077;50.298;18.996;2023-06-14T12:27:58;8.90;;;4.70;;
77880;SDS011;67077;50.298;18.996;2023-06-14T12:30:25;9.30;;;4.80;;
77880;SDS011;67077;50.298;18.996;2023-06-14T12:32:52;8.30;;;4.50;;
77880;SDS011;67077;50.298;18.996;2023-06-14T12:35:19;7.40;;;4.50;;
77880;SDS011;67077;50.298;18.996;2023-06-14T12:37:46;7.20;;;4.60;;
77880;SDS011;67077;50.298;18.996;2023-06-14T12:40:13;6.80;;;4.30;;
77880;SDS011;67077;50.298;18.996;2023-06-14T12:42:40;7.20;;;4.60;;
77880;SDS011;67077;50.298;18.996;2023-06-14T12:45:08;8.50;;;4.60;;
77880;SDS011;67077;50.298;18.996;2023-06-14T12:47:35;5.80;;;3.90;;
77880;SDS011;67077;50.298;18.996;2023-06-14T12:50:02;9.50;;;4.70;;
77880;SDS011;67077;50.298;18.996;2023-06-14T12:52:29;7.30;;;4.50;;
77880;SDS011;67077;50.298;18.996;2023-06-14T12:55:15;6.90;;;4.60;;
77880;SDS011;67077;50.298;18.996;2023-06-14T12:57:42;7.30;;;4.40;;
77880;SDS011;67077;50.298;18.996;2023-06-14T13:00:08;7.60;;;4.50;;
77880;SDS011;67077;50.298;18.996;2023-06-14T13:02:35;7.30;;;4.60;;
77880;SDS011;67077;50.298;18.996;2023-06-14T13:05:02;9.30;;;4.30;;
77880;SDS011;67077;50.298;18.996;2023-06-14T13:07:30;8.10;;;4.40;;
77880;SDS011;67077;50.298;18.996;2023-06-14T13:09:56;9.10;;;4.60;;
77880;SDS011;67077;50.298;18.996;2023-06-14T13:12:23;10.60;;;5.20;;
77880;SDS011;67077;50.298;18.996;2023-06-14T13:14:49;10.10;;;5.40;;
77880;SDS011;67077;50.298;18.996;2023-06-14T13:17:16;11.20;;;5.40;;
77880;SDS011;67077;50.298;18.996;2023-06-14T13:19:43;8.60;;;4.90;;
77880;SDS011;67077;50.298;18.996;2023-06-14T13:22:10;7.70;;;4.50;;
77880;SDS011;67077;50.298;18.996;2023-06-14T13:24:36;8.80;;;4.60;;
77880;SDS011;67077;50.298;18.996;2023-06-14T13:27:03;7.10;;;4.40;;
77880;SDS011;67077;50.298;18.996;2023-06-14T13:29:29;5.60;;;4.10;;
77880;SDS011;67077;50.298;18.996;2023-06-14T13:31:57;4.80;;;3.70;;
77880;SDS011;67077;50.298;18.996;2023-06-14T13:34:24;7.10;;;3.80;;
77880;SDS011;67077;50.298;18.996;2023-06-14T13:36:50;5.20;;;3.70;;
77880;SDS011;67077;50.298;18.996;2023-06-14T13:39:17;4.40;;;3.20;;
77880;SDS011;67077;50.298;18.996;2023-06-14T13:41:43;5.10;;;3.50;;
77880;SDS011;67077;50.298;18.996;2023-06-14T13:44:10;5.00;;;3.20;;
77880;SDS011;67077;50.298;18.996;2023-06-14T13:46:40;4.80;;;3.20;;
77880;SDS011;67077;50.298;18.996;2023-06-14T13:49:08;4.40;;;3.40;;
77880;SDS011;67077;50.298;18.996;2023-06-14T13:51:36;4.80;;;3.60;;
77880;SDS011;67077;50.298;18.996;2023-06-14T13:54:02;6.60;;;3.50;;
77880;SDS011;67077;50.298;18.996;2023-06-14T13:56:29;5.80;;;3.80;;
77880;SDS011;67077;50.298;18.996;2023-06-14T13:58:56;7.90;;;3.90;;
77880;SDS011;67077;50.298;18.996;2023-06-14T14:01:23;5.20;;;3.50;;
77880;SDS011;67077;50.298;18.996;2023-06-14T14:03:51;6.40;;;3.90;;
77880;SDS011;67077;50.298;18.996;2023-06-14T14:06:18;5.50;;;4.10;;
77880;SDS011;67077;50.298;18.996;2023-06-14T14:08:44;5.70;;;4.20;;
77880;SDS011;67077;50.298;18.996;2023-06-14T14:11:11;5.40;;;4.00;;
77880;SDS011;67077;50.298;18.996;2023-06-14T14:13:38;5.10;;;3.90;;
77880;SDS011;67077;50.298;18.996;2023-06-14T14:16:06;5.10;;;4.00;;
77880;SDS011;67077;50.298;18.996;2023-06-14T14:18:33;5.40;;;3.80;;
77880;SDS011;67077;50.298;18.996;2023-06-14T14:20:59;6.40;;;4.10;;
77880;SDS011;67077;50.298;18.996;2023-06-14T14:23:26;6.90;;;4.10;;
77880;SDS011;67077;50.298;18.996;2023-06-14T14:25:54;6.50;;;4.10;;
77880;SDS011;67077;50.298;18.996;2023-06-14T14:28:20;5.30;;;3.90;;
77880;SDS011;67077;50.298;18.996;2023-06-14T14:30:47;7.30;;;3.70;;
77880;SDS011;67077;50.298;18.996;2023-06-14T14:33:14;4.50;;;3.40;;
77880;SDS011;67077;50.298;18.996;2023-06-14T14:35:44;8.40;;;3.30;;
77880;SDS011;67077;50.298;18.996;2023-06-14T14:38:14;3.80;;;2.70;;
77880;SDS011;67077;50.298;18.996;2023-06-14T14:40:42;5.70;;;3.40;;
77880;SDS011;67077;50.298;18.996;2023-06-14T14:43:10;4.60;;;3.60;;
77880;SDS011;67077;50.298;18.996;2023-06-14T14:45:37;6.30;;;3.70;;
77880;SDS011;67077;50.298;18.996;2023-06-14T14:48:04;5.40;;;4.00;;
77880;SDS011;67077;50.298;18.996;2023-06-14T14:50:32;4.90;;;3.90;;
77880;SDS011;67077;50.298;18.996;2023-06-14T14:52:59;4.70;;;3.80;;
77880;SDS011;67077;50.298;18.996;2023-06-14T14:55:25;4.90;;;4.00;;
77880;SDS011;67077;50.298;18.996;2023-06-14T14:57:52;5.00;;;4.20;;
77880;SDS011;67077;50.298;18.996;2023-06-14T15:00:18;4.50;;;3.70;;
77880;SDS011;67077;50.298;18.996;2023-06-14T15:02:45;4.60;;;3.70;;
77880;SDS011;67077;50.298;18.996;2023-06-14T15:05:12;5.20;;;3.90;;
77880;SDS011;67077;50.298;18.996;2023-06-14T15:07:38;5.00;;;3.60;;
77880;SDS011;67077;50.298;18.996;2023-06-14T15:10:07;4.60;;;3.70;;
77880;SDS011;67077;50.298;18.996;2023-06-14T15:12:34;4.30;;;3.70;;
77880;SDS011;67077;50.298;18.996;2023-06-14T15:15:01;4.80;;;3.80;;
77880;SDS011;67077;50.298;18.996;2023-06-14T15:17:29;6.10;;;3.90;;
77880;SDS011;67077;50.298;18.996;2023-06-14T15:19:56;5.00;;;4.10;;
77880;SDS011;67077;50.298;18.996;2023-06-14T15:22:22;5.30;;;4.50;;